Lewiston Nez Perce County Airport
KLWS : now visible

Airfield :











YOU CAN JOIN US ON...

 
LOGIN :

Register | Disclaimer

   EN    FR    IT 

 









Legend :    VFR   Marginal VFR   IFR   Intensive IFR   Very Intensive IFR
Visi :
Ceiling :
>= 8 km
>= 3000ft
5 to 8 km
1000 to 3000 ft
1500m to 5 km
500 to 1000 ft
800 to 1500m
200 to 500 ft
< 800m
< 200 ft
Symbols :   Thunderstorms  Fog  Heavy snow  Heavy precipitations  Wind > 20 kt






- Airport Elevation : 1442 ft
- IATA code : LWS


KLWS - Lewiston Nez Perce County

CURRENT METAR :
  • 221245Z AUTO 11003KT 1SM BR OVC006 00/M01 A3028 RMK AO2 T00001011

EXPIRED METARs :
  • 221234Z AUTO 13003KT 9SM OVC006 00/M01 A3028 RMK AO2 T00001011
  • 221214Z AUTO 11003KT 1/4SM FZFG VV005 M01/M01 A3027 RMK AO2 T10061011
  • 221208Z AUTO 00000KT 1SM BR OVC005 M01/M01 A3027 RMK AO2 T10061011
  • 221205Z AUTO 00000KT 2SM BR BKN005 M01/M01 A3027 RMK AO2 T10061011
  • 221156Z AUTO 14003KT 1/4SM FG BKN005 OVC009 00/M01 A3026 RMK AO2 SLP257 70003 T00001011 10044 20000 53013
  • 221125Z AUTO 00000KT 3SM BR OVC010 01/00 A3026 RMK AO2 T00060000
  • 221058Z AUTO 16003KT 1/2SM FG SCT006 OVC014 01/M01 A3025 RMK AO2 T00061006
  • 221056Z AUTO 16004KT 1/4SM FG BKN006 OVC014 01/M01 A3024 RMK AO2 SLP251 T00061006
  • 221043Z AUTO 16004KT 1/4SM FG BKN002 BKN014 01/M01 A3024 RMK AO2 T00061006
  • 221035Z AUTO 15005KT 1/4SM FG VV001 00/M01 A3023 RMK AO2 T00001011
  • 221025Z AUTO 16005KT 3/4SM BR VV001 00/M01 A3023 RMK AO2 T00001011
  • 220956Z AUTO 15004KT 10SM CLR 01/M01 A3022 RMK AO2 SLP244 T00061006

TAF KLWS
Valid from the 22 at 12:00 until the 23 at 12:00 UTC


221138Z 2212/2312 VRB03KT 3SM BR BKN010
FM221700 VRB03KT P6SM SKC
FM230800 12003KT P6SM BKN200
KZSE FIR / North America



MET'MAP, your aeronautical weather chart ! - Copyright ORBIFLY December 2007 - Disclaimer

ORBIFLY MET'MAP TEAM :

Programming & Development : Alexandra Zaïnal
Concept & original design : Baudouin d'Aumeries
Assistance for programming : Marc-Olivier Méhu
Technical & hardware support : Manuel Goepfert

Contact : metmap@orbifly.com




SOURCES & CREDITS :

   NOAA       Earth
Advisory